Cripple Creek, Virginia
Current Conditions -  °F | °C
As of 12:34 AM on Thursday 18 Dec 2014 (Local Time) from KMKJ Reporting Station
Scattered Clouds Scattered Clouds  
Wind Chill: 22°   Ceiling: Unl
Heat Index: 34°   Visibility: 10mi
Dew Point: 27°   Wind: 21mph
Humidity: 75%   Direction: 290°WNW
Pressure: 30.11"   Gusts: 31mph
Location:  36.82°N, 81.1°W
Report Text: KMKJ 180534Z AUTO 29018G27KT 10SM SCT013 01/M03 A3011 RMK AO2
Loading
Personal Weather Stations






























Interactive Weather Map New forecast layout! Learn more

10-Day Weather Forecast

Advertisements
Track Severe Weather on mobile